sensor_id;sensor_type;location;lat;lon;timestamp;pressure;altitude;pressure_sealevel;temperature;humidity
45275;BME280;31019;43.780;25.948;2023-01-29T00:01:17;101410.75;;;-0.29;100.00
45275;BME280;31019;43.780;25.948;2023-01-29T00:03:44;101407.91;;;-0.37;100.00
45275;BME280;31019;43.780;25.948;2023-01-29T00:06:11;101414.31;;;-0.41;100.00
45275;BME280;31019;43.780;25.948;2023-01-29T00:08:38;101415.16;;;-0.30;100.00
45275;BME280;31019;43.780;25.948;2023-01-29T00:11:07;101423.00;;;-0.30;100.00
45275;BME280;31019;43.780;25.948;2023-01-29T00:13:34;101426.28;;;-0.28;100.00
45275;BME280;31019;43.780;25.948;2023-01-29T00:16:01;101422.75;;;-0.27;100.00
45275;BME280;31019;43.780;25.948;2023-01-29T00:18:28;101435.91;;;-0.39;100.00
45275;BME280;31019;43.780;25.948;2023-01-29T00:20:55;101436.16;;;-0.31;100.00
45275;BME280;31019;43.780;25.948;2023-01-29T00:23:22;101429.50;;;-0.35;100.00
45275;BME280;31019;43.780;25.948;2023-01-29T00:25:49;101441.00;;;-0.38;100.00
45275;BME280;31019;43.780;25.948;2023-01-29T00:28:17;101446.69;;;-0.44;100.00
45275;BME280;31019;43.780;25.948;2023-01-29T00:30:44;101449.19;;;-0.42;100.00
45275;BME280;31019;43.780;25.948;2023-01-29T00:33:10;101452.28;;;-0.37;100.00
45275;BME280;31019;43.780;25.948;2023-01-29T00:35:39;101460.38;;;-0.29;100.00
45275;BME280;31019;43.780;25.948;2023-01-29T00:38:06;101459.31;;;-0.27;100.00
45275;BME280;31019;43.780;25.948;2023-01-29T00:40:36;101465.34;;;-0.26;100.00
45275;BME280;31019;43.780;25.948;2023-01-29T00:43:19;101457.75;;;-0.29;100.00
45275;BME280;31019;43.780;25.948;2023-01-29T00:46:03;101456.09;;;-0.30;100.00
45275;BME280;31019;43.780;25.948;2023-01-29T00:48:32;101452.28;;;-0.26;100.00
45275;BME280;31019;43.780;25.948;2023-01-29T00:50:59;101449.69;;;-0.26;100.00
45275;BME280;31019;43.780;25.948;2023-01-29T00:53:26;101464.16;;;-0.22;100.00
45275;BME280;31019;43.780;25.948;2023-01-29T00:55:53;101464.28;;;-0.24;100.00
45275;BME280;31019;43.780;25.948;2023-01-29T00:58:21;101463.00;;;-0.18;100.00
45275;BME280;31019;43.780;25.948;2023-01-29T01:00:53;101462.03;;;-0.17;100.00
45275;BME280;31019;43.780;25.948;2023-01-29T01:03:20;101464.63;;;-0.28;100.00
45275;BME280;31019;43.780;25.948;2023-01-29T01:05:46;101470.91;;;-0.31;100.00
45275;BME280;31019;43.780;25.948;2023-01-29T01:08:13;101465.59;;;-0.29;100.00
45275;BME280;31019;43.780;25.948;2023-01-29T01:10:59;101472.00;;;-0.22;100.00
45275;BME280;31019;43.780;25.948;2023-01-29T01:13:30;101470.69;;;-0.28;100.00
45275;BME280;31019;43.780;25.948;2023-01-29T01:15:56;101470.81;;;-0.29;100.00
45275;BME280;31019;43.780;25.948;2023-01-29T01:18:23;101465.34;;;-0.37;100.00
45275;BME280;31019;43.780;25.948;2023-01-29T01:20:55;101474.75;;;-0.24;100.00
45275;BME280;31019;43.780;25.948;2023-01-29T01:23:22;101471.28;;;-0.24;100.00
45275;BME280;31019;43.780;25.948;2023-01-29T01:25:49;101470.09;;;-0.31;100.00
45275;BME280;31019;43.780;25.948;2023-01-29T01:28:16;101465.59;;;-0.29;100.00
45275;BME280;31019;43.780;25.948;2023-01-29T01:30:44;101469.38;;;-0.33;100.00
45275;BME280;31019;43.780;25.948;2023-01-29T01:33:11;101466.53;;;-0.30;100.00
45275;BME280;31019;43.780;25.948;2023-01-29T01:35:38;101468.53;;;-0.34;100.00
45275;BME280;31019;43.780;25.948;2023-01-29T01:38:05;101471.16;;;-0.22;100.00
45275;BME280;31019;43.780;25.948;2023-01-29T01:40:32;101467.84;;;-0.36;100.00
45275;BME280;31019;43.780;25.948;2023-01-29T01:42:59;101470.81;;;-0.29;100.00
45275;BME280;31019;43.780;25.948;2023-01-29T01:45:27;101468.44;;;-0.21;100.00
45275;BME280;31019;43.780;25.948;2023-01-29T01:47:58;101463.09;;;-0.19;100.00
45275;BME280;31019;43.780;25.948;2023-01-29T01:50:31;101474.84;;;-0.14;100.00
45275;BME280;31019;43.780;25.948;2023-01-29T01:53:03;101467.13;;;-0.15;100.00
45275;BME280;31019;43.780;25.948;2023-01-29T01:55:33;101472.72;;;-0.20;100.00
45275;BME280;31019;43.780;25.948;2023-01-29T01:58:08;101463.94;;;-0.19;100.00
45275;BME280;31019;43.780;25.948;2023-01-29T02:00:38;101467.84;;;-0.25;100.00
45275;BME280;31019;43.780;25.948;2023-01-29T02:03:06;101468.56;;;-0.22;100.00
45275;BME280;31019;43.780;25.948;2023-01-29T02:05:54;101464.88;;;-0.20;100.00
45275;BME280;31019;43.780;25.948;2023-01-29T02:08:45;101459.16;;;-0.25;100.00
45275;BME280;31019;43.780;25.948;2023-01-29T02:11:30;101471.63;;;-0.29;100.00
45275;BME280;31019;43.780;25.948;2023-01-29T02:13:57;101462.16;;;-0.30;100.00
45275;BME280;31019;43.780;25.948;2023-01-29T02:16:24;101465.00;;;-0.33;100.00
45275;BME280;31019;43.780;25.948;2023-01-29T02:18:53;101468.28;;;-0.31;100.00
45275;BME280;31019;43.780;25.948;2023-01-29T02:21:35;101459.06;;;-0.35;100.00
45275;BME280;31019;43.780;25.948;2023-01-29T02:24:39;101465.59;;;-0.29;100.00
45275;BME280;31019;43.780;25.948;2023-01-29T02:27:11;101465.94;;;-0.22;100.00
45275;BME280;31019;43.780;25.948;2023-01-29T02:29:50;101472.94;;;-0.34;100.00
45275;BME280;31019;43.780;25.948;2023-01-29T02:32:23;101479.97;;;-0.24;100.00
45275;BME280;31019;43.780;25.948;2023-01-29T02:35:03;101475.44;;;-0.33;100.00
45275;BME280;31019;43.780;25.948;2023-01-29T02:37:54;101472.34;;;-0.38;100.00
45275;BME280;31019;43.780;25.948;2023-01-29T02:40:28;101467.00;;;-0.36;100.00
45275;BME280;31019;43.780;25.948;2023-01-29T02:43:03;101477.31;;;-0.35;100.00
45275;BME280;31019;43.780;25.948;2023-01-29T02:45:40;101482.22;;;-0.30;100.00
45275;BME280;31019;43.780;25.948;2023-01-29T02:48:11;101483.97;;;-0.31;100.00
45275;BME280;31019;43.780;25.948;2023-01-29T02:50:42;101481.81;;;-0.37;100.00
45275;BME280;31019;43.780;25.948;2023-01-29T02:53:14;101480.75;;;-0.34;100.00
45275;BME280;31019;43.780;25.948;2023-01-29T02:55:44;101487.31;;;-0.29;100.00
45275;BME280;31019;43.780;25.948;2023-01-29T02:58:20;101485.06;;;-0.33;100.00
45275;BME280;31019;43.780;25.948;2023-01-29T03:00:51;101482.22;;;-0.30;100.00
45275;BME280;31019;43.780;25.948;2023-01-29T03:03:21;101484.81;;;-0.30;100.00
45275;BME280;31019;43.780;25.948;2023-01-29T03:05:54;101492.16;;;-0.35;100.00
45275;BME280;31019;43.780;25.948;2023-01-29T03:08:28;101487.53;;;-0.32;100.00
45275;BME280;31019;43.780;25.948;2023-01-29T03:11:03;101487.75;;;-0.35;100.00
45275;BME280;31019;43.780;25.948;2023-01-29T03:13:35;101489.53;;;-0.35;100.00
45275;BME280;31019;43.780;25.948;2023-01-29T03:16:10;101484.66;;;-0.40;100.00
45275;BME280;31019;43.780;25.948;2023-01-29T03:18:42;101494.63;;;-0.34;100.00
45275;BME280;31019;43.780;25.948;2023-01-29T03:21:15;101489.19;;;-0.31;100.00
45275;BME280;31019;43.780;25.948;2023-01-29T03:24:00;101492.66;;;-0.30;100.00
45275;BME280;31019;43.780;25.948;2023-01-29T03:26:46;101491.94;;;-0.32;100.00
45275;BME280;31019;43.780;25.948;2023-01-29T03:29:31;101493.81;;;-0.34;100.00
45275;BME280;31019;43.780;25.948;2023-01-29T03:32:19;101495.84;;;-0.27;100.00
45275;BME280;31019;43.780;25.948;2023-01-29T03:34:49;101490.72;;;-0.39;100.00
45275;BME280;31019;43.780;25.948;2023-01-29T03:37:21;101496.66;;;-0.37;100.00
45275;BME280;31019;43.780;25.948;2023-01-29T03:39:50;101496.06;;;-0.41;100.00
45275;BME280;31019;43.780;25.948;2023-01-29T03:42:21;101495.94;;;-0.39;100.00
45275;BME280;31019;43.780;25.948;2023-01-29T03:44:57;101503.09;;;-0.30;100.00
45275;BME280;31019;43.780;25.948;2023-01-29T03:47:37;101503.31;;;-0.33;100.00
45275;BME280;31019;43.780;25.948;2023-01-29T03:50:13;101504.16;;;-0.21;100.00
45275;BME280;31019;43.780;25.948;2023-01-29T03:52:48;101490.59;;;-0.38;100.00
45275;BME280;31019;43.780;25.948;2023-01-29T03:55:19;101505.25;;;-0.24;100.00
45275;BME280;31019;43.780;25.948;2023-01-29T03:57:52;101500.47;;;-0.30;100.00
45275;BME280;31019;43.780;25.948;2023-01-29T04:00:27;101499.28;;;-0.26;100.00
45275;BME280;31019;43.780;25.948;2023-01-29T04:03:02;101500.63;;;-0.20;100.00
45275;BME280;31019;43.780;25.948;2023-01-29T04:05:36;101502.09;;;-0.40;100.00
45275;BME280;31019;43.780;25.948;2023-01-29T04:08:09;101504.25;;;-0.34;100.00
45275;BME280;31019;43.780;25.948;2023-01-29T04:10:38;101507.09;;;-0.37;100.00
45275;BME280;31019;43.780;25.948;2023-01-29T04:13:08;101510.31;;;-0.34;100.00
45275;BME280;31019;43.780;25.948;2023-01-29T04:15:39;101510.78;;;-0.29;100.00
45275;BME280;31019;43.780;25.948;2023-01-29T04:18:08;101506.75;;;-0.33;100.00
45275;BME280;31019;43.780;25.948;2023-01-29T04:20:35;101510.44;;;-0.35;100.00
45275;BME280;31019;43.780;25.948;2023-01-29T04:23:05;101511.16;;;-0.33;100.00
45275;BME280;31019;43.780;25.948;2023-01-29T04:25:43;101504.16;;;-0.21;100.00
45275;BME280;31019;43.780;25.948;2023-01-29T04:28:15;101510.19;;;-0.32;100.00
45275;BME280;31019;43.780;25.948;2023-01-29T04:30:50;101519.44;;;-0.28;100.00
45275;BME280;31019;43.780;25.948;2023-01-29T04:33:28;101513.53;;;-0.30;100.00
45275;BME280;31019;43.780;25.948;2023-01-29T04:36:15;101521.25;;;-0.29;100.00
45275;BME280;31019;43.780;25.948;2023-01-29T04:38:52;101509.84;;;-0.28;100.00
45275;BME280;31019;43.780;25.948;2023-01-29T04:41:26;101517.66;;;-0.39;100.00
45275;BME280;31019;43.780;25.948;2023-01-29T04:44:01;101524.53;;;-0.38;100.00
45275;BME280;31019;43.780;25.948;2023-01-29T04:46:34;101511.59;;;-0.39;100.00
45275;BME280;31019;43.780;25.948;2023-01-29T04:49:14;101515.28;;;-0.42;100.00
45275;BME280;31019;43.780;25.948;2023-01-29T04:51:49;101514.56;;;-0.44;100.00
45275;BME280;31019;43.780;25.948;2023-01-29T04:54:22;101528.34;;;-0.42;100.00
45275;BME280;31019;43.780;25.948;2023-01-29T04:56:56;101525.59;;;-0.40;100.00
45275;BME280;31019;43.780;25.948;2023-01-29T04:59:31;101532.88;;;-0.33;100.00
45275;BME280;31019;43.780;25.948;2023-01-29T05:02:00;101524.78;;;-0.41;100.00
45275;BME280;31019;43.780;25.948;2023-01-29T05:04:31;101523.94;;;-0.41;100.00
45275;BME280;31019;43.780;25.948;2023-01-29T05:07:02;101523.47;;;-0.35;100.00
45275;BME280;31019;43.780;25.948;2023-01-29T05:09:30;101544.09;;;-0.43;100.00
45275;BME280;31019;43.780;25.948;2023-01-29T05:11:59;101539.25;;;-0.48;100.00
45275;BME280;31019;43.780;25.948;2023-01-29T05:14:27;101544.91;;;-0.54;100.00
45275;BME280;31019;43.780;25.948;2023-01-29T05:16:57;101541.72;;;-0.47;100.00
45275;BME280;31019;43.780;25.948;2023-01-29T05:19:29;101549.69;;;-0.48;100.00
45275;BME280;31019;43.780;25.948;2023-01-29T05:21:56;101556.66;;;-0.49;100.00
45275;BME280;31019;43.780;25.948;2023-01-29T05:24:24;101558.56;;;-0.51;100.00
45275;BME280;31019;43.780;25.948;2023-01-29T05:26:52;101558.44;;;-0.49;100.00
45275;BME280;31019;43.780;25.948;2023-01-29T05:29:38;101555.44;;;-0.56;100.00
45275;BME280;31019;43.780;25.948;2023-01-29T05:32:08;101566.63;;;-0.54;100.00
45275;BME280;31019;43.780;25.948;2023-01-29T05:34:36;101561.16;;;-0.51;100.00
45275;BME280;31019;43.780;25.948;2023-01-29T05:37:03;101559.84;;;-0.56;100.00
45275;BME280;31019;43.780;25.948;2023-01-29T05:39:30;101566.94;;;-0.58;100.00
45275;BME280;31019;43.780;25.948;2023-01-29T05:41:57;101570.16;;;-0.55;100.00
45275;BME280;31019;43.780;25.948;2023-01-29T05:44:24;101573.94;;;-0.59;100.00
45275;BME280;31019;43.780;25.948;2023-01-29T05:46:51;101566.78;;;-0.68;100.00
45275;BME280;31019;43.780;25.948;2023-01-29T05:49:18;101578.88;;;-0.67;100.00
45275;BME280;31019;43.780;25.948;2023-01-29T05:51:48;101581.25;;;-0.64;100.00
45275;BME280;31019;43.780;25.948;2023-01-29T05:54:14;101586.38;;;-0.62;100.00
45275;BME280;31019;43.780;25.948;2023-01-29T05:56:41;101585.19;;;-0.70;100.00
45275;BME280;31019;43.780;25.948;2023-01-29T05:59:08;101594.97;;;-0.49;100.00
45275;BME280;31019;43.780;25.948;2023-01-29T06:01:35;101598.41;;;-0.49;100.00
45275;BME280;31019;43.780;25.948;2023-01-29T06:04:02;101595.81;;;-0.49;100.00
45275;BME280;31019;43.780;25.948;2023-01-29T06:06:29;101593.09;;;-0.47;100.00
45275;BME280;31019;43.780;25.948;2023-01-29T06:08:57;101601.91;;;-0.37;100.00
45275;BME280;31019;43.780;25.948;2023-01-29T06:11:24;101601.53;;;-0.43;100.00
45275;BME280;31019;43.780;25.948;2023-01-29T06:13:51;101607.97;;;-0.36;100.00
45275;BME280;31019;43.780;25.948;2023-01-29T06:16:17;101613.16;;;-0.48;100.00
45275;BME280;31019;43.780;25.948;2023-01-29T06:18:44;101604.88;;;-0.41;100.00
45275;BME280;31019;43.780;25.948;2023-01-29T06:21:12;101614.56;;;-0.43;100.00
45275;BME280;31019;43.780;25.948;2023-01-29T06:23:39;101620.00;;;-0.22;100.00
45275;BME280;31019;43.780;25.948;2023-01-29T06:26:10;101621.88;;;-0.25;100.00
45275;BME280;31019;43.780;25.948;2023-01-29T06:28:37;101624.56;;;-0.37;100.00
45275;BME280;31019;43.780;25.948;2023-01-29T06:31:05;101625.06;;;-0.32;100.00
45275;BME280;31019;43.780;25.948;2023-01-29T06:33:33;101627.53;;;-0.42;100.00
45275;BME280;31019;43.780;25.948;2023-01-29T06:36:02;101629.38;;;-0.20;100.00
45275;BME280;31019;43.780;25.948;2023-01-29T06:38:29;101636.81;;;-0.03;100.00
45275;BME280;31019;43.780;25.948;2023-01-29T06:40:57;101637.94;;;-0.18;100.00
45275;BME280;31019;43.780;25.948;2023-01-29T06:43:25;101640.28;;;0.09;100.00
45275;BME280;31019;43.780;25.948;2023-01-29T06:45:53;101657.00;;;0.07;100.00
45275;BME280;31019;43.780;25.948;2023-01-29T06:48:20;101651.94;;;0.16;100.00
45275;BME280;31019;43.780;25.948;2023-01-29T06:50:47;101650.66;;;-0.13;100.00
45275;BME280;31019;43.780;25.948;2023-01-29T06:53:15;101645.69;;;-0.05;100.00
45275;BME280;31019;43.780;25.948;2023-01-29T06:55:43;101645.34;;;-0.01;100.00
45275;BME280;31019;43.780;25.948;2023-01-29T06:58:16;101644.28;;;0.02;100.00
45275;BME280;31019;43.780;25.948;2023-01-29T07:00:44;101658.63;;;-0.04;100.00
45275;BME280;31019;43.780;25.948;2023-01-29T07:03:11;101641.25;;;0.19;100.00
45275;BME280;31019;43.780;25.948;2023-01-29T07:05:37;101639.31;;;0.10;100.00
45275;BME280;31019;43.780;25.948;2023-01-29T07:08:04;101651.44;;;0.11;100.00
45275;BME280;31019;43.780;25.948;2023-01-29T07:10:31;101649.22;;;0.29;100.00
45275;BME280;31019;43.780;25.948;2023-01-29T07:12:58;101647.44;;;0.30;100.00
45275;BME280;31019;43.780;25.948;2023-01-29T07:15:25;101648.03;;;0.33;100.00
45275;BME280;31019;43.780;25.948;2023-01-29T07:17:57;101651.72;;;0.31;100.00
45275;BME280;31019;43.780;25.948;2023-01-29T07:20:25;101648.28;;;0.41;100.00
45275;BME280;31019;43.780;25.948;2023-01-29T07:22:52;101659.22;;;0.69;100.00
45275;BME280;31019;43.780;25.948;2023-01-29T07:25:19;101647.09;;;0.34;100.00
45275;BME280;31019;43.780;25.948;2023-01-29T07:27:46;101661.97;;;0.56;100.00
45275;BME280;31019;43.780;25.948;2023-01-29T07:30:14;101665.53;;;0.55;100.00
45275;BME280;31019;43.780;25.948;2023-01-29T07:32:41;101674.56;;;0.62;100.00
45275;BME280;31019;43.780;25.948;2023-01-29T07:35:09;101671.84;;;0.53;100.00
45275;BME280;31019;43.780;25.948;2023-01-29T07:37:36;101681.22;;;0.66;100.00
45275;BME280;31019;43.780;25.948;2023-01-29T07:40:04;101689.81;;;0.91;100.00
45275;BME280;31019;43.780;25.948;2023-01-29T07:42:36;101688.13;;;0.90;100.00
45275;BME280;31019;43.780;25.948;2023-01-29T07:45:03;101692.28;;;0.93;100.00
45275;BME280;31019;43.780;25.948;2023-01-29T07:47:30;101688.97;;;0.68;100.00
45275;BME280;31019;43.780;25.948;2023-01-29T07:49:57;101693.72;;;0.85;100.00
45275;BME280;31019;43.780;25.948;2023-01-29T07:52:25;101679.94;;;0.83;100.00
45275;BME280;31019;43.780;25.948;2023-01-29T07:54:52;101687.78;;;0.61;100.00
45275;BME280;31019;43.780;25.948;2023-01-29T07:57:18;101686.59;;;0.65;100.00
45275;BME280;31019;43.780;25.948;2023-01-29T07:59:45;101687.91;;;0.71;100.00
45275;BME280;31019;43.780;25.948;2023-01-29T08:02:12;101682.66;;;0.59;100.00
45275;BME280;31019;43.780;25.948;2023-01-29T08:04:39;101685.50;;;0.67;100.00
45275;BME280;31019;43.780;25.948;2023-01-29T08:07:06;101690.28;;;0.85;100.00
45275;BME280;31019;43.780;25.948;2023-01-29T08:09:35;101687.28;;;0.89;100.00
45275;BME280;31019;43.780;25.948;2023-01-29T08:12:02;101682.56;;;0.95;100.00
45275;BME280;31019;43.780;25.948;2023-01-29T08:14:28;101685.16;;;0.95;100.00
45275;BME280;31019;43.780;25.948;2023-01-29T08:16:55;101689.19;;;0.99;100.00
45275;BME280;31019;43.780;25.948;2023-01-29T08:19:22;101699.88;;;0.84;100.00
45275;BME280;31019;43.780;25.948;2023-01-29T08:21:49;101708.81;;;1.04;100.00
45275;BME280;31019;43.780;25.948;2023-01-29T08:24:15;101704.66;;;0.90;100.00
45275;BME280;31019;43.780;25.948;2023-01-29T08:26:44;101704.44;;;0.82;100.00
45275;BME280;31019;43.780;25.948;2023-01-29T08:29:11;101708.44;;;1.09;100.00
45275;BME280;31019;43.780;25.948;2023-01-29T08:31:37;101709.16;;;1.00;100.00
45275;BME280;31019;43.780;25.948;2023-01-29T08:34:04;101703.81;;;1.24;100.00
45275;BME280;31019;43.780;25.948;2023-01-29T08:36:31;101714.06;;;1.16;100.00
45275;BME280;31019;43.780;25.948;2023-01-29T08:38:58;101708.59;;;1.19;100.00
45275;BME280;31019;43.780;25.948;2023-01-29T08:41:24;101723.56;;;1.17;100.00
45275;BME280;31019;43.780;25.948;2023-01-29T08:43:52;101714.13;;;1.48;100.00
45275;BME280;31019;43.780;25.948;2023-01-29T08:46:19;101715.44;;;1.42;100.00
45275;BME280;31019;43.780;25.948;2023-01-29T08:48:46;101712.53;;;1.68;100.00
45275;BME280;31019;43.780;25.948;2023-01-29T08:51:12;101714.75;;;1.72;100.00
45275;BME280;31019;43.780;25.948;2023-01-29T08:53:39;101717.75;;;1.79;100.00
45275;BME280;31019;43.780;25.948;2023-01-29T08:56:06;101718.88;;;1.97;100.00
45275;BME280;31019;43.780;25.948;2023-01-29T08:58:33;101721.63;;;1.52;100.00
45275;BME280;31019;43.780;25.948;2023-01-29T09:01:12;101730.28;;;1.64;100.00
45275;BME280;31019;43.780;25.948;2023-01-29T09:03:39;101728.31;;;1.89;100.00
45275;BME280;31019;43.780;25.948;2023-01-29T09:06:08;101726.38;;;2.23;100.00
45275;BME280;31019;43.780;25.948;2023-01-29T09:08:35;101731.41;;;2.15;100.00
45275;BME280;31019;43.780;25.948;2023-01-29T09:11:02;101726.47;;;2.00;100.00
45275;BME280;31019;43.780;25.948;2023-01-29T09:13:29;101718.19;;;1.84;100.00
45275;BME280;31019;43.780;25.948;2023-01-29T09:15:58;101737.03;;;2.10;100.00
45275;BME280;31019;43.780;25.948;2023-01-29T09:18:26;101728.13;;;2.01;100.00
45275;BME280;31019;43.780;25.948;2023-01-29T09:20:53;101727.16;;;2.02;100.00
45275;BME280;31019;43.780;25.948;2023-01-29T09:23:20;101709.19;;;2.30;100.00
45275;BME280;31019;43.780;25.948;2023-01-29T09:25:47;101718.56;;;1.25;100.00
45275;BME280;31019;43.780;25.948;2023-01-29T09:28:14;101714.00;;;1.49;100.00
45275;BME280;31019;43.780;25.948;2023-01-29T09:30:42;101718.03;;;1.97;100.00
45275;BME280;31019;43.780;25.948;2023-01-29T09:33:09;101710.28;;;1.95;100.00
45275;BME280;31019;43.780;25.948;2023-01-29T09:35:39;101700.69;;;2.05;100.00
45275;BME280;31019;43.780;25.948;2023-01-29T09:38:05;101709.16;;;1.00;100.00
45275;BME280;31019;43.780;25.948;2023-01-29T09:40:34;101704.63;;;1.35;100.00
45275;BME280;31019;43.780;25.948;2023-01-29T09:43:05;101692.53;;;1.67;100.00
45275;BME280;31019;43.780;25.948;2023-01-29T09:45:33;101696.81;;;1.24;100.00
45275;BME280;31019;43.780;25.948;2023-01-29T09:48:02;101688.22;;;1.33;100.00
45275;BME280;31019;43.780;25.948;2023-01-29T09:50:33;101696.50;;;1.50;100.00
45275;BME280;31019;43.780;25.948;2023-01-29T09:53:10;101688.41;;;1.53;100.00
45275;BME280;31019;43.780;25.948;2023-01-29T09:55:44;101690.00;;;1.76;100.00
45275;BME280;31019;43.780;25.948;2023-01-29T09:58:18;101690.16;;;1.64;100.00
45275;BME280;31019;43.780;25.948;2023-01-29T10:00:55;101681.84;;;1.58;100.00
45275;BME280;31019;43.780;25.948;2023-01-29T10:06:42;101686.97;;;0.94;100.00
45275;BME280;31019;43.780;25.948;2023-01-29T10:09:36;101690.09;;;1.43;100.00
45275;BME280;31019;43.780;25.948;2023-01-29T10:12:16;101681.47;;;1.63;100.00
45275;BME280;31019;43.780;25.948;2023-01-29T10:14:51;101678.84;;;1.20;100.00
45275;BME280;31019;43.780;25.948;2023-01-29T10:17:39;101682.53;;;0.83;100.00
45275;BME280;31019;43.780;25.948;2023-01-29T10:20:33;101669.81;;;1.56;100.00
45275;BME280;31019;43.780;25.948;2023-01-29T10:23:13;101668.03;;;1.13;100.00
45275;BME280;31019;43.780;25.948;2023-01-29T10:25:44;101657.38;;;1.69;100.00
45275;BME280;31019;43.780;25.948;2023-01-29T10:28:16;101661.56;;;1.72;100.00
45275;BME280;31019;43.780;25.948;2023-01-29T10:30:47;101654.09;;;1.67;100.00
45275;BME280;31019;43.780;25.948;2023-01-29T10:33:18;101657.72;;;1.44;100.00
45275;BME280;31019;43.780;25.948;2023-01-29T10:35:48;101667.16;;;1.24;100.00
45275;BME280;31019;43.780;25.948;2023-01-29T10:38:30;101660.03;;;1.14;100.00
45275;BME280;31019;43.780;25.948;2023-01-29T10:41:16;101661.88;;;1.46;100.00
45275;BME280;31019;43.780;25.948;2023-01-29T10:43:57;101664.84;;;1.42;100.00
45275;BME280;31019;43.780;25.948;2023-01-29T10:46:37;101655.28;;;1.08;100.00
45275;BME280;31019;43.780;25.948;2023-01-29T10:49:17;101666.00;;;1.05;100.00
45275;BME280;31019;43.780;25.948;2023-01-29T10:52:05;101663.63;;;1.13;100.00
45275;BME280;31019;43.780;25.948;2023-01-29T11:00:20;101644.56;;;1.23;100.00
45275;BME280;31019;43.780;25.948;2023-01-29T11:02:49;101632.41;;;1.33;100.00
45275;BME280;31019;43.780;25.948;2023-01-29T11:05:20;101637.63;;;1.33;100.00
45275;BME280;31019;43.780;25.948;2023-01-29T11:08:02;101638.56;;;1.75;100.00
45275;BME280;31019;43.780;25.948;2023-01-29T11:10:31;101632.75;;;1.72;100.00
45275;BME280;31019;43.780;25.948;2023-01-29T11:13:00;101631.63;;;1.86;100.00
45275;BME280;31019;43.780;25.948;2023-01-29T11:15:29;101631.47;;;1.34;100.00
45275;BME280;31019;43.780;25.948;2023-01-29T11:18:01;101626.03;;;1.14;100.00
45275;BME280;31019;43.780;25.948;2023-01-29T11:20:29;101627.59;;;1.49;100.00
45275;BME280;31019;43.780;25.948;2023-01-29T11:22:56;101618.84;;;1.60;100.00
45275;BME280;31019;43.780;25.948;2023-01-29T11:25:24;101635.72;;;1.35;100.00
45275;BME280;31019;43.780;25.948;2023-01-29T11:27:54;101630.03;;;1.62;100.00
45275;BME280;31019;43.780;25.948;2023-01-29T11:30:24;101632.13;;;1.47;100.00
45275;BME280;31019;43.780;25.948;2023-01-29T11:32:59;101633.78;;;1.48;100.00
45275;BME280;31019;43.780;25.948;2023-01-29T11:35:31;101628.47;;;1.71;100.00
45275;BME280;31019;43.780;25.948;2023-01-29T11:38:06;101630.25;;;1.70;100.00
45275;BME280;31019;43.780;25.948;2023-01-29T11:40:37;101621.69;;;1.68;100.00
45275;BME280;31019;43.780;25.948;2023-01-29T11:43:22;101631.72;;;1.20;100.00
45275;BME280;31019;43.780;25.948;2023-01-29T11:45:57;101627.78;;;1.36;100.00
45275;BME280;31019;43.780;25.948;2023-01-29T11:48:32;101625.78;;;1.18;100.00
45275;BME280;31019;43.780;25.948;2023-01-29T11:51:05;101626.16;;;0.90;100.00
45275;BME280;31019;43.780;25.948;2023-01-29T11:53:35;101619.38;;;0.99;100.00
45275;BME280;31019;43.780;25.948;2023-01-29T11:56:06;101614.72;;;1.25;100.00
45275;BME280;31019;43.780;25.948;2023-01-29T11:58:41;101613.69;;;1.49;100.00
45275;BME280;31019;43.780;25.948;2023-01-29T12:01:11;101616.06;;;1.52;100.00
45275;BME280;31019;43.780;25.948;2023-01-29T12:03:41;101620.81;;;1.47;100.00
45275;BME280;31019;43.780;25.948;2023-01-29T12:06:17;101612.94;;;1.58;100.00
45275;BME280;31019;43.780;25.948;2023-01-29T12:08:52;101608.28;;;1.62;100.00
45275;BME280;31019;43.780;25.948;2023-01-29T12:11:24;101598.19;;;1.25;100.00
45275;BME280;31019;43.780;25.948;2023-01-29T12:13:52;101597.88;;;1.39;100.00
45275;BME280;31019;43.780;25.948;2023-01-29T12:16:23;101598.41;;;1.54;100.00
45275;BME280;31019;43.780;25.948;2023-01-29T12:18:53;101592.34;;;1.53;100.00
45275;BME280;31019;43.780;25.948;2023-01-29T12:21:28;101590.88;;;1.40;100.00
45275;BME280;31019;43.780;25.948;2023-01-29T12:24:02;101601.03;;;1.54;100.00
45275;BME280;31019;43.780;25.948;2023-01-29T12:26:34;101600.53;;;1.60;100.00
45275;BME280;31019;43.780;25.948;2023-01-29T12:29:20;101593.31;;;1.52;100.00
45275;BME280;31019;43.780;25.948;2023-01-29T12:31:58;101592.38;;;1.42;100.00
45275;BME280;31019;43.780;25.948;2023-01-29T12:34:36;101602.03;;;1.09;100.00
45275;BME280;31019;43.780;25.948;2023-01-29T12:37:15;101600.34;;;1.52;100.00
45275;BME280;31019;43.780;25.948;2023-01-29T12:39:44;101603.06;;;1.18;100.00
45275;BME280;31019;43.780;25.948;2023-01-29T12:42:15;101604.41;;;1.12;100.00
45275;BME280;31019;43.780;25.948;2023-01-29T12:44:45;101607.94;;;1.23;100.00
45275;BME280;31019;43.780;25.948;2023-01-29T12:47:22;101606.03;;;1.25;100.00
45275;BME280;31019;43.780;25.948;2023-01-29T12:49:54;101601.31;;;1.07;100.00
45275;BME280;31019;43.780;25.948;2023-01-29T12:52:28;101610.94;;;1.18;100.00
45275;BME280;31019;43.780;25.948;2023-01-29T12:55:01;101612.88;;;1.37;100.00
45275;BME280;31019;43.780;25.948;2023-01-29T12:57:35;101624.28;;;1.04;100.00
45275;BME280;31019;43.780;25.948;2023-01-29T13:00:07;101627.31;;;1.20;100.00
45275;BME280;31019;43.780;25.948;2023-01-29T13:02:41;101621.41;;;1.07;100.00
45275;BME280;31019;43.780;25.948;2023-01-29T13:05:18;101619.47;;;1.09;100.00